createdAt,value
2022-11-05T00:01:10.029Z,3.85
2022-11-05T00:03:30.282Z,4.05
2022-11-05T00:05:50.686Z,5.20
2022-11-05T00:08:12.349Z,4.45
2022-11-05T00:10:19.445Z,5.68
2022-11-05T00:12:39.649Z,4.20
2022-11-05T00:14:59.849Z,4.07
2022-11-05T00:17:01.459Z,4.55
2022-11-05T00:19:10.201Z,5.13
2022-11-05T00:21:37.980Z,4.97
2022-11-05T00:23:58.559Z,4.00
2022-11-05T00:26:00.872Z,4.18
2022-11-05T00:28:03.046Z,4.03
2022-11-05T00:30:05.179Z,3.78
2022-11-05T00:32:06.794Z,3.42
2022-11-05T00:34:08.597Z,3.92
2022-11-05T00:36:11.554Z,4.65
2022-11-05T00:38:13.261Z,5.00
2022-11-05T00:40:15.221Z,3.53
2022-11-05T00:42:35.063Z,4.55
2022-11-05T00:44:55.209Z,3.97
2022-11-05T00:47:16.831Z,4.07
2022-11-05T00:49:30.498Z,3.60
2022-11-05T00:51:35.094Z,4.63
2022-11-05T00:53:36.770Z,4.28
2022-11-05T00:55:44.792Z,5.85
2022-11-05T00:57:46.410Z,5.25
2022-11-05T00:59:48.429Z,5.32
2022-11-05T01:01:50.218Z,4.57
2022-11-05T01:03:52.168Z,4.38
2022-11-05T01:06:01.201Z,4.32
2022-11-05T01:08:02.972Z,3.85
2022-11-05T01:10:05.003Z,4.10
2022-11-05T01:12:06.770Z,3.72
2022-11-05T01:14:10.969Z,3.25
2022-11-05T01:16:12.581Z,4.00
2022-11-05T01:18:14.350Z,4.53
2022-11-05T01:20:16.640Z,4.70
2022-11-05T01:22:18.303Z,4.03
2022-11-05T01:24:20.085Z,4.07
2022-11-05T01:26:21.747Z,3.83
2022-11-05T01:28:23.430Z,3.47
2022-11-05T01:30:25.165Z,3.58
2022-11-05T01:32:26.846Z,3.92
2022-11-05T01:34:28.659Z,4.05
2022-11-05T01:36:30.362Z,3.67
2022-11-05T01:38:31.969Z,5.05
2022-11-05T01:40:33.782Z,3.72
2022-11-05T01:42:35.572Z,4.22
2022-11-05T01:44:57.648Z,3.22
2022-11-05T01:46:59.403Z,3.53
2022-11-05T01:49:10.851Z,2.80
2022-11-05T01:51:16.943Z,2.72
2022-11-05T01:53:43.826Z,1.85
2022-11-05T01:55:55.111Z,2.38
2022-11-05T01:57:58.719Z,2.20
2022-11-05T02:00:02.250Z,2.35
2022-11-05T02:02:04.453Z,1.90
2022-11-05T02:04:09.539Z,1.58
2022-11-05T02:06:11.516Z,1.60
2022-11-05T02:08:18.215Z,2.50
2022-11-05T02:10:21.197Z,2.20
2022-11-05T02:12:23.449Z,2.70
2022-11-05T02:14:25.309Z,3.33
2022-11-05T02:17:02.814Z,2.95
2022-11-05T02:19:28.783Z,2.65
2022-11-05T02:21:52.491Z,1.88
2022-11-05T02:24:11.683Z,2.10
2022-11-05T02:26:34.818Z,1.52
2022-11-05T02:29:13.641Z,1.63
2022-11-05T02:31:21.231Z,1.58
2022-11-05T02:33:41.751Z,1.70
2022-11-05T02:35:55.505Z,1.38
2022-11-05T02:38:09.584Z,1.45
2022-11-05T02:40:13.742Z,2.75
2022-11-05T02:42:52.702Z,1.40
2022-11-05T02:45:01.488Z,1.88
2022-11-05T02:47:31.071Z,1.38
2022-11-05T02:49:39.472Z,1.58
2022-11-05T02:51:49.796Z,2.53
2022-11-05T02:54:17.392Z,1.27
2022-11-05T02:56:24.932Z,1.50
2022-11-05T02:58:30.654Z,1.85
2022-11-05T03:00:51.725Z,1.73
2022-11-05T03:02:53.529Z,1.45
2022-11-05T03:04:55.288Z,1.77
2022-11-05T03:07:15.815Z,1.90
2022-11-05T03:09:30.556Z,1.45
2022-11-05T03:11:35.896Z,1.50
2022-11-05T03:13:40.390Z,1.63
2022-11-05T03:15:57.716Z,1.92
2022-11-05T03:18:13.640Z,3.30
2022-11-05T03:20:29.372Z,1.63
2022-11-05T03:22:36.254Z,1.75
2022-11-05T03:24:42.517Z,1.38
2022-11-05T03:26:57.093Z,1.50
2022-11-05T03:29:06.773Z,1.42
2022-11-05T03:31:09.027Z,1.25
2022-11-05T03:33:18.339Z,2.08
2022-11-05T03:35:32.248Z,1.38
2022-11-05T03:37:37.796Z,1.58
2022-11-05T03:39:43.876Z,1.30
2022-11-05T03:41:47.847Z,1.75
2022-11-05T03:43:52.182Z,1.33
2022-11-05T03:46:02.377Z,1.42
2022-11-05T03:48:05.313Z,1.27
2022-11-05T03:50:15.730Z,1.30
2022-11-05T03:52:20.296Z,1.30
2022-11-05T03:54:22.719Z,1.23
2022-11-05T03:56:30.614Z,1.77
2022-11-05T03:58:32.446Z,1.42
2022-11-05T04:00:34.193Z,1.58
2022-11-05T04:02:37.764Z,1.77
2022-11-05T04:04:40.214Z,1.85
2022-11-05T04:07:00.401Z,1.60
2022-11-05T04:09:20.751Z,1.30
2022-11-05T04:11:41.015Z,1.58
2022-11-05T04:13:42.670Z,1.73
2022-11-05T04:16:03.006Z,1.23
2022-11-05T04:18:04.704Z,1.38
2022-11-05T04:20:25.592Z,1.50
2022-11-05T04:22:47.755Z,1.55
2022-11-05T04:24:49.507Z,1.63
2022-11-05T04:26:51.124Z,1.42
2022-11-05T04:29:11.755Z,1.38
2022-11-05T04:31:13.462Z,1.55
2022-11-05T04:33:16.595Z,1.52
2022-11-05T04:35:18.393Z,1.88
2022-11-05T04:37:20.149Z,1.45
2022-11-05T04:39:21.909Z,1.45
2022-11-05T04:41:23.501Z,1.50
2022-11-05T04:43:25.158Z,1.48
2022-11-05T04:45:28.775Z,1.38
2022-11-05T04:47:30.486Z,1.23
2022-11-05T04:49:32.141Z,1.25
2022-11-05T04:51:33.780Z,0.95
2022-11-05T04:53:35.450Z,1.15
2022-11-05T04:55:37.071Z,1.35
2022-11-05T04:57:38.813Z,1.63
2022-11-05T04:59:41.190Z,1.38
2022-11-05T05:01:42.903Z,1.65
2022-11-05T05:03:47.011Z,1.70
2022-11-05T05:05:48.655Z,1.27
2022-11-05T05:07:50.299Z,1.25
2022-11-05T05:09:52.106Z,1.50
2022-11-05T05:11:53.745Z,1.38
2022-11-05T05:13:55.458Z,1.38
2022-11-05T05:15:57.136Z,1.10
2022-11-05T05:17:59.772Z,0.95
2022-11-05T05:20:20.196Z,1.10
2022-11-05T05:22:21.885Z,1.25
2022-11-05T05:24:25.126Z,1.23
2022-11-05T05:26:27.095Z,1.20
2022-11-05T05:28:28.707Z,1.63
2022-11-05T05:30:30.348Z,2.13
2022-11-05T05:32:31.980Z,1.33
2022-11-05T05:34:33.793Z,1.20
2022-11-05T05:36:35.421Z,1.40
2022-11-05T05:38:37.133Z,1.30
2022-11-05T05:40:38.795Z,1.27
2022-11-05T05:42:43.324Z,1.42
2022-11-05T05:44:45.397Z,1.20
2022-11-05T05:46:47.042Z,1.45
2022-11-05T05:48:50.647Z,1.58
2022-11-05T05:50:52.344Z,1.58
2022-11-05T05:52:54.066Z,1.50
2022-11-05T05:54:55.714Z,1.80
2022-11-05T05:56:58.055Z,1.30
2022-11-05T05:58:59.700Z,1.30
2022-11-05T06:01:02.601Z,1.50
2022-11-05T06:03:06.413Z,1.80
2022-11-05T06:05:08.443Z,1.75
2022-11-05T06:07:10.087Z,1.67
2022-11-05T06:09:11.921Z,1.90
2022-11-05T06:11:13.811Z,1.45
2022-11-05T06:13:15.463Z,2.10
2022-11-05T06:15:17.261Z,1.45
2022-11-05T06:17:18.963Z,1.63
2022-11-05T06:19:20.656Z,1.40
2022-11-05T06:21:22.292Z,1.35
2022-11-05T06:23:23.909Z,1.92
2022-11-05T06:25:26.208Z,1.80
2022-11-05T06:27:29.057Z,1.40
2022-11-05T06:29:30.792Z,1.10
2022-11-05T06:31:32.456Z,1.65
2022-11-05T06:33:34.180Z,1.25
2022-11-05T06:35:36.404Z,1.60
2022-11-05T06:37:38.139Z,1.70
2022-11-05T06:39:39.921Z,1.67
2022-11-05T06:44:03.352Z,1.25
2022-11-05T06:46:05.480Z,1.30
2022-11-05T06:48:07.171Z,1.80
2022-11-05T06:50:09.051Z,1.45
2022-11-05T06:52:10.735Z,2.10
2022-11-05T06:54:12.545Z,1.30
2022-11-05T06:56:14.160Z,1.50
2022-11-05T06:58:16.071Z,1.30
2022-11-05T07:00:18.758Z,2.00
2022-11-05T07:02:20.469Z,1.90
2022-11-05T07:04:22.108Z,1.90
2022-11-05T07:06:23.724Z,1.70
2022-11-05T07:08:25.396Z,1.63
2022-11-05T07:10:27.031Z,1.40
2022-11-05T07:12:28.615Z,2.10
2022-11-05T07:14:30.318Z,2.03
2022-11-05T07:16:31.969Z,2.15
2022-11-05T07:18:34.896Z,2.33
2022-11-05T07:20:36.571Z,1.65
2022-11-05T07:22:38.420Z,2.35
2022-11-05T07:24:40.166Z,1.88
2022-11-05T07:26:41.941Z,2.28
2022-11-05T07:28:43.679Z,2.20
2022-11-05T07:30:45.426Z,1.88
2022-11-05T07:32:47.049Z,1.77
2022-11-05T07:34:48.744Z,2.10
2022-11-05T07:36:50.379Z,1.90
2022-11-05T07:38:54.921Z,1.80
2022-11-05T07:41:00.743Z,1.52
2022-11-05T07:43:02.566Z,1.70
2022-11-05T07:45:05.108Z,1.90
2022-11-05T07:47:06.750Z,1.67
2022-11-05T07:49:08.409Z,1.60
2022-11-05T07:51:10.194Z,1.50
2022-11-05T07:53:14.272Z,1.73
2022-11-05T07:55:17.089Z,1.67
2022-11-05T07:57:18.732Z,1.42
2022-11-05T07:59:20.398Z,1.80
2022-11-05T08:01:22.256Z,1.80
2022-11-05T08:03:24.225Z,1.35
2022-11-05T08:05:26.343Z,1.65
2022-11-05T08:07:28.431Z,1.40
2022-11-05T08:09:30.198Z,1.42
2022-11-05T08:11:32.340Z,1.10
2022-11-05T08:13:34.651Z,1.20
2022-11-05T08:15:36.829Z,1.10
2022-11-05T08:17:38.564Z,1.38
2022-11-05T08:19:40.348Z,1.40
2022-11-05T08:21:42.090Z,1.10
2022-11-05T08:23:43.905Z,1.35
2022-11-05T08:25:45.616Z,1.20
2022-11-05T08:27:47.336Z,1.48
2022-11-05T08:29:48.977Z,1.23
2022-11-05T08:31:53.528Z,1.48
2022-11-05T08:33:58.402Z,1.08
2022-11-05T08:36:05.276Z,1.40
2022-11-05T08:38:08.157Z,1.40
2022-11-05T08:40:31.092Z,1.00
2022-11-05T08:42:33.351Z,1.40
2022-11-05T08:44:34.996Z,1.88
2022-11-05T08:46:41.443Z,1.55
2022-11-05T08:48:43.571Z,1.80
2022-11-05T08:50:47.143Z,1.85
2022-11-05T08:52:48.922Z,1.95
2022-11-05T08:54:50.711Z,1.42
2022-11-05T08:56:53.896Z,1.55
2022-11-05T08:58:57.626Z,1.52
2022-11-05T09:01:04.720Z,1.65
2022-11-05T09:03:08.649Z,1.63
2022-11-05T09:05:10.604Z,2.08
2022-11-05T09:07:12.258Z,1.80
2022-11-05T09:09:13.907Z,1.60
2022-11-05T09:11:15.576Z,1.27
2022-11-05T09:13:19.896Z,1.33
2022-11-05T09:15:23.291Z,2.25
2022-11-05T09:17:25.047Z,1.73
2022-11-05T09:19:26.697Z,2.22
2022-11-05T09:21:28.360Z,2.30
2022-11-05T09:23:30.181Z,2.17
2022-11-05T09:25:33.258Z,1.75
2022-11-05T09:27:34.941Z,2.35
2022-11-05T09:29:36.906Z,1.60
2022-11-05T09:31:40.927Z,1.55
2022-11-05T09:33:42.589Z,1.52
2022-11-05T09:35:44.609Z,1.63
2022-11-05T09:37:46.239Z,1.58
2022-11-05T09:39:47.889Z,1.45
2022-11-05T09:41:50.412Z,1.70
2022-11-05T09:43:55.647Z,1.35
2022-11-05T09:45:58.552Z,1.95
2022-11-05T09:48:05.870Z,1.40
2022-11-05T09:50:12.818Z,1.33
2022-11-05T09:52:40.514Z,1.45
2022-11-05T09:54:42.245Z,1.30
2022-11-05T09:56:44.082Z,1.45
2022-11-05T09:58:50.755Z,1.35
2022-11-05T10:00:53.163Z,1.40
2022-11-05T10:03:03.312Z,1.73
2022-11-05T10:05:10.156Z,1.38
2022-11-05T10:07:16.153Z,1.38
2022-11-05T10:09:31.545Z,1.55
2022-11-05T10:11:41.949Z,1.50
2022-11-05T10:14:27.705Z,2.42
2022-11-05T10:16:51.924Z,1.40
2022-11-05T10:19:03.061Z,1.30
2022-11-05T10:21:05.226Z,1.75
2022-11-05T10:23:16.682Z,2.20
2022-11-05T10:25:20.849Z,2.00
2022-11-05T10:27:34.141Z,2.47
2022-11-05T10:29:36.077Z,2.05
2022-11-05T10:31:37.942Z,1.75
2022-11-05T10:33:45.795Z,1.23
2022-11-05T10:35:52.076Z,1.20
2022-11-05T10:37:53.768Z,2.13
2022-11-05T10:39:55.952Z,2.05
2022-11-05T10:42:09.204Z,1.42
2022-11-05T10:44:18.750Z,1.67
2022-11-05T10:46:25.896Z,1.70
2022-11-05T10:48:33.537Z,1.67
2022-11-05T10:50:35.285Z,1.65
2022-11-05T10:52:40.627Z,1.42
2022-11-05T10:54:42.253Z,1.42
2022-11-05T10:56:44.309Z,1.70
2022-11-05T10:58:55.266Z,1.90
2022-11-05T11:00:57.038Z,2.22
2022-11-05T11:03:04.100Z,1.95
2022-11-05T11:05:06.005Z,2.63
2022-11-05T11:07:23.108Z,2.03
2022-11-05T11:09:30.876Z,2.25
2022-11-05T11:11:35.916Z,2.40
2022-11-05T11:13:59.079Z,1.58
2022-11-05T11:16:16.306Z,2.35
2022-11-05T11:18:35.963Z,2.85
2022-11-05T11:20:44.882Z,2.67
2022-11-05T11:23:11.384Z,2.92
2022-11-05T11:25:25.651Z,2.90
2022-11-05T11:27:29.578Z,2.17
2022-11-05T11:29:36.068Z,2.42
2022-11-05T11:31:38.875Z,1.92
2022-11-05T11:33:43.034Z,1.90
2022-11-05T11:35:46.272Z,2.58
2022-11-05T11:37:49.272Z,2.90
2022-11-05T11:39:57.308Z,1.85
2022-11-05T11:42:02.301Z,2.95
2022-11-05T11:44:08.303Z,2.95
2022-11-05T11:46:15.628Z,3.20
2022-11-05T11:48:25.020Z,2.65
2022-11-05T11:50:43.699Z,3.15
2022-11-05T11:52:45.338Z,3.50
2022-11-05T11:54:46.977Z,3.08
2022-11-05T11:56:49.008Z,3.00
2022-11-05T11:58:53.109Z,2.85
2022-11-05T12:01:05.569Z,2.38
2022-11-05T12:03:30.105Z,3.33
2022-11-05T12:05:59.156Z,3.42
2022-11-05T12:08:16.331Z,3.25
2022-11-05T12:10:36.891Z,3.42
2022-11-05T12:13:14.163Z,3.53
2022-11-05T12:15:42.266Z,4.43
2022-11-05T12:18:00.156Z,5.18
2022-11-05T12:20:20.086Z,5.13
2022-11-05T12:22:43.505Z,4.60
2022-11-05T12:25:03.268Z,5.45
2022-11-05T12:27:07.997Z,4.93
2022-11-05T12:29:34.452Z,6.82
2022-11-05T12:31:58.931Z,6.72
2022-11-05T12:34:18.895Z,5.43
2022-11-05T12:36:26.225Z,6.85
2022-11-05T12:38:40.022Z,7.00
2022-11-05T12:40:50.739Z,5.53
2022-11-05T12:43:10.513Z,7.65
2022-11-05T12:45:24.808Z,5.68
2022-11-05T12:47:33.374Z,7.60
2022-11-05T12:50:22.140Z,8.32
2022-11-05T12:52:53.797Z,7.82
2022-11-05T12:55:05.986Z,6.53
2022-11-05T12:57:11.834Z,6.25
2022-11-05T12:59:24.609Z,4.43
2022-11-05T13:01:35.811Z,4.78
2022-11-05T13:03:46.460Z,4.53
2022-11-05T13:05:52.752Z,4.30
2022-11-05T13:08:01.055Z,4.30
2022-11-05T13:10:40.550Z,3.53
2022-11-05T13:12:43.125Z,4.05
2022-11-05T13:14:57.818Z,4.78
2022-11-05T13:17:02.810Z,4.63
2022-11-05T13:19:25.507Z,4.07
2022-11-05T13:21:29.149Z,4.50
2022-11-05T13:23:51.911Z,5.53
2022-11-05T13:25:59.647Z,4.20
2022-11-05T13:28:10.897Z,4.35
2022-11-05T13:30:22.141Z,6.28
2022-11-05T13:32:36.643Z,4.97
2022-11-05T13:34:38.347Z,5.22
2022-11-05T13:37:20.107Z,4.53
2022-11-05T13:39:28.820Z,6.03
2022-11-05T13:42:06.045Z,6.00
2022-11-05T13:44:25.858Z,4.53
2022-11-05T13:46:38.242Z,5.13
2022-11-05T13:48:45.434Z,5.78
2022-11-05T13:51:02.234Z,5.35
2022-11-05T13:53:24.650Z,6.25
2022-11-05T13:56:03.960Z,6.68
2022-11-05T13:58:27.640Z,4.82
2022-11-05T14:00:51.950Z,5.68
2022-11-05T14:03:00.681Z,5.72
2022-11-05T14:05:02.832Z,6.55
2022-11-05T14:07:16.970Z,4.88
2022-11-05T14:09:22.625Z,4.85
2022-11-05T14:11:38.733Z,5.60
2022-11-05T14:13:43.004Z,5.50
2022-11-05T14:16:18.196Z,4.93
2022-11-05T14:18:46.688Z,5.07
2022-11-05T14:21:00.094Z,4.78
2022-11-05T14:23:23.562Z,6.07
2022-11-05T14:25:45.389Z,4.72
2022-11-05T14:27:49.476Z,5.60
2022-11-05T14:29:51.126Z,5.43
2022-11-05T14:32:09.483Z,4.35
2022-11-05T14:34:11.774Z,4.30
2022-11-05T14:36:22.399Z,4.00
2022-11-05T14:38:26.549Z,4.50
2022-11-05T14:40:37.229Z,3.33
2022-11-05T14:42:38.950Z,3.67
2022-11-05T14:44:57.444Z,3.60
2022-11-05T14:47:02.618Z,3.40
2022-11-05T14:49:09.616Z,3.95
2022-11-05T14:51:31.575Z,3.15
2022-11-05T14:53:35.541Z,3.90
2022-11-05T14:55:43.579Z,3.92
2022-11-05T14:57:48.418Z,3.17
2022-11-05T14:59:58.841Z,3.67
2022-11-05T15:02:16.731Z,2.47
2022-11-05T15:04:28.331Z,2.97
2022-11-05T15:06:33.163Z,4.60
2022-11-05T15:08:55.204Z,3.53
2022-11-05T15:11:07.664Z,2.67
2022-11-05T15:13:25.739Z,3.42
2022-11-05T15:15:53.485Z,3.67
2022-11-05T15:17:58.787Z,3.80
2022-11-05T15:20:14.894Z,3.47
2022-11-05T15:22:26.664Z,3.03
2022-11-05T15:24:28.644Z,3.20
2022-11-05T15:26:40.481Z,3.55
2022-11-05T15:28:47.779Z,3.63
2022-11-05T15:31:05.179Z,2.92
2022-11-05T15:33:23.671Z,2.92
2022-11-05T15:35:28.204Z,2.50
2022-11-05T15:37:30.201Z,2.42
2022-11-05T15:39:42.593Z,2.45
2022-11-05T15:41:44.874Z,3.20
2022-11-05T15:43:50.809Z,3.10
2022-11-05T15:46:18.712Z,4.97
2022-11-05T15:48:20.397Z,3.95
2022-11-05T15:50:22.103Z,3.97
2022-11-05T15:52:25.843Z,3.80
2022-11-05T15:54:30.553Z,3.05
2022-11-05T15:56:48.107Z,3.92
2022-11-05T15:58:53.309Z,3.85
2022-11-05T16:00:54.986Z,3.35
2022-11-05T16:03:00.653Z,2.97
2022-11-05T16:05:12.344Z,2.38
2022-11-05T16:07:14.556Z,2.55
2022-11-05T16:09:25.163Z,2.40
2022-11-05T16:11:27.228Z,1.83
2022-11-05T16:13:35.877Z,1.98
2022-11-05T16:15:37.622Z,3.05
2022-11-05T16:17:59.364Z,2.90
2022-11-05T16:20:01.187Z,3.03
2022-11-05T16:22:06.828Z,4.18
2022-11-05T16:24:26.610Z,3.17
2022-11-05T16:29:13.163Z,3.10
2022-11-05T16:31:14.811Z,4.03
2022-11-05T16:33:16.576Z,3.88
2022-11-05T16:35:21.392Z,3.67
2022-11-05T16:37:24.773Z,4.72
2022-11-05T16:39:26.913Z,4.20
2022-11-05T16:41:28.523Z,3.63
2022-11-05T16:43:30.232Z,4.50
2022-11-05T16:45:33.256Z,3.35
2022-11-05T16:47:37.616Z,2.25
2022-11-05T16:49:39.372Z,5.28
2022-11-05T16:51:41.232Z,4.00
2022-11-05T16:53:42.960Z,2.88
2022-11-05T16:55:45.458Z,3.50
2022-11-05T16:57:50.492Z,2.95
2022-11-05T16:59:53.052Z,2.20
2022-11-05T17:01:55.976Z,3.47
2022-11-05T17:03:57.870Z,2.83
2022-11-05T17:05:59.489Z,2.72
2022-11-05T17:08:01.953Z,2.70
2022-11-05T17:10:04.089Z,2.88
2022-11-05T17:12:05.809Z,3.35
2022-11-05T17:14:10.762Z,3.42
2022-11-05T17:16:14.197Z,3.55
2022-11-05T17:18:18.906Z,4.90
2022-11-05T17:20:40.851Z,4.50
2022-11-05T17:22:42.849Z,3.83
2022-11-05T17:24:44.598Z,4.03
2022-11-05T17:26:46.191Z,4.20
2022-11-05T17:28:47.967Z,3.20
2022-11-05T17:30:52.637Z,3.45
2022-11-05T17:32:54.642Z,3.40
2022-11-05T17:34:56.416Z,3.00
2022-11-05T17:36:58.055Z,2.97
2022-11-05T17:38:59.763Z,2.50
2022-11-05T17:41:01.685Z,2.80
2022-11-05T17:43:04.105Z,2.58
2022-11-05T17:45:06.370Z,3.42
2022-11-05T17:47:07.983Z,2.75
2022-11-05T17:49:09.629Z,2.55
2022-11-05T17:51:13.179Z,2.28
2022-11-05T17:53:16.877Z,1.95
2022-11-05T17:55:18.611Z,3.25
2022-11-05T17:57:20.233Z,2.83
2022-11-05T17:59:21.977Z,3.70
2022-11-05T18:01:29.760Z,2.80
2022-11-05T18:03:32.001Z,6.10
2022-11-05T18:05:34.324Z,4.85
2022-11-05T18:07:36.067Z,5.25
2022-11-05T18:09:37.795Z,5.80
2022-11-05T18:11:40.245Z,3.75
2022-11-05T18:13:42.025Z,4.15
2022-11-05T18:15:44.661Z,4.07
2022-11-05T18:17:46.574Z,4.07
2022-11-05T18:19:48.160Z,3.33
2022-11-05T18:21:49.867Z,4.20
2022-11-05T18:23:51.719Z,4.95
2022-11-05T18:25:53.504Z,4.53
2022-11-05T18:27:55.140Z,5.53
2022-11-05T18:29:56.772Z,3.83
2022-11-05T18:31:58.601Z,4.70
2022-11-05T18:34:01.102Z,5.38
2022-11-05T18:36:02.762Z,4.43
2022-11-05T18:38:04.426Z,4.57
2022-11-05T18:40:07.677Z,2.92
2022-11-05T18:42:09.764Z,2.90
2022-11-05T18:44:12.730Z,4.20
2022-11-05T18:46:35.993Z,3.72
2022-11-05T18:48:36.653Z,3.15
2022-11-05T18:50:39.966Z,2.88
2022-11-05T18:52:41.613Z,2.60
2022-11-05T18:54:43.562Z,2.80
2022-11-05T18:56:45.824Z,3.35
2022-11-05T18:58:47.499Z,3.10
2022-11-05T19:00:49.150Z,2.53
2022-11-05T19:02:50.901Z,2.88
2022-11-05T19:05:22.533Z,3.10
2022-11-05T19:07:14.360Z,3.45
2022-11-05T19:09:16.038Z,3.17
2022-11-05T19:11:20.283Z,4.15
2022-11-05T19:13:22.035Z,4.10
2022-11-05T19:15:23.726Z,4.13
2022-11-05T19:17:25.324Z,4.00
2022-11-05T19:19:27.522Z,3.92
2022-11-05T19:21:29.715Z,5.60
2022-11-05T19:23:31.348Z,5.93
2022-11-05T19:25:32.985Z,7.03
2022-11-05T19:27:36.554Z,5.25
2022-11-05T19:29:38.112Z,6.43
2022-11-05T19:31:39.759Z,6.55
2022-11-05T19:33:42.924Z,5.70
2022-11-05T19:35:44.580Z,6.05
2022-11-05T19:37:46.344Z,5.30
2022-11-05T19:39:47.931Z,5.68
2022-11-05T19:41:49.708Z,5.95
2022-11-05T19:43:52.530Z,4.40
2022-11-05T19:45:54.187Z,4.25
2022-11-05T19:47:55.840Z,4.70
2022-11-05T19:49:57.496Z,3.40
2022-11-05T19:51:59.127Z,4.03
2022-11-05T19:54:01.828Z,3.28
2022-11-05T19:56:12.980Z,2.67
2022-11-05T19:58:15.127Z,3.40
2022-11-05T20:00:17.286Z,3.15
2022-11-05T20:02:19.178Z,2.60
2022-11-05T20:04:20.904Z,3.90
2022-11-05T20:06:28.338Z,3.47
2022-11-05T20:08:30.175Z,3.20
2022-11-05T20:10:31.767Z,3.10
2022-11-05T20:12:34.479Z,2.60
2022-11-05T20:14:36.227Z,2.78
2022-11-05T20:16:42.292Z,2.72
2022-11-05T20:18:44.047Z,3.13
2022-11-05T20:20:46.430Z,3.15
2022-11-05T20:22:48.114Z,2.88
2022-11-05T20:24:49.752Z,2.47
2022-11-05T20:26:52.016Z,2.75
2022-11-05T20:28:53.638Z,3.25
2022-11-05T20:30:57.885Z,3.50
2022-11-05T20:32:59.567Z,2.58
2022-11-05T20:35:01.191Z,2.42
2022-11-05T20:37:02.988Z,3.00
2022-11-05T20:39:05.766Z,3.55
2022-11-05T20:41:09.740Z,4.20
2022-11-05T20:43:11.467Z,3.33
2022-11-05T20:45:13.142Z,4.22
2022-11-05T20:47:14.882Z,3.17
2022-11-05T20:49:21.263Z,4.75
2022-11-05T20:51:25.783Z,3.42
2022-11-05T20:53:27.431Z,3.50
2022-11-05T20:55:29.089Z,3.53
2022-11-05T20:57:30.756Z,3.72
2022-11-05T20:59:32.345Z,2.90
2022-11-05T21:01:35.116Z,3.45
2022-11-05T21:03:36.886Z,4.10
2022-11-05T21:05:38.479Z,4.10
2022-11-05T21:07:40.208Z,4.07
2022-11-05T21:09:41.901Z,4.45
2022-11-05T21:12:02.254Z,4.55
2022-11-05T21:14:03.836Z,5.82
2022-11-05T21:16:07.548Z,5.50
2022-11-05T21:18:09.538Z,8.05
2022-11-05T21:20:11.591Z,8.43
2022-11-05T21:22:16.460Z,10.25
2022-11-05T21:24:18.065Z,9.98
2022-11-05T21:26:19.831Z,9.93
2022-11-05T21:28:21.526Z,9.40
2022-11-05T21:30:23.202Z,6.72
2022-11-05T21:32:24.836Z,5.47
2022-11-05T21:34:27.785Z,4.78
2022-11-05T21:36:29.459Z,4.47
2022-11-05T21:38:31.094Z,4.63
2022-11-05T21:40:32.904Z,4.88
2022-11-05T21:42:34.571Z,5.97
2022-11-05T21:44:36.171Z,5.97
2022-11-05T21:46:37.952Z,5.75
2022-11-05T21:48:39.743Z,5.45
2022-11-05T21:51:00.541Z,5.07
2022-11-05T21:53:20.683Z,5.57
2022-11-05T21:55:40.869Z,4.05
2022-11-05T21:58:20.759Z,4.75
2022-11-05T22:00:22.438Z,5.78
2022-11-05T22:02:25.198Z,4.10
2022-11-05T22:04:30.593Z,4.22
2022-11-05T22:06:33.619Z,3.67
2022-11-05T22:08:35.226Z,3.65
2022-11-05T22:10:36.861Z,4.57
2022-11-05T22:12:38.613Z,5.28
2022-11-05T22:14:40.380Z,4.30
2022-11-05T22:16:41.966Z,6.47
2022-11-05T22:18:43.583Z,4.70
2022-11-05T22:20:45.209Z,5.18
2022-11-05T22:22:46.853Z,5.50
2022-11-05T22:24:48.424Z,5.78
2022-11-05T22:26:50.317Z,4.38
2022-11-05T22:28:55.489Z,4.82
2022-11-05T22:30:57.093Z,5.68
2022-11-05T22:32:58.644Z,8.13
2022-11-05T22:35:00.228Z,7.57
2022-11-05T22:37:01.927Z,7.75
2022-11-05T22:39:04.312Z,6.45
2022-11-05T22:41:14.064Z,6.70
2022-11-05T22:43:15.681Z,8.13
2022-11-05T22:45:17.290Z,12.18
2022-11-05T22:47:18.957Z,14.60
2022-11-05T22:49:20.600Z,12.82
2022-11-05T22:51:27.939Z,13.35
2022-11-05T22:53:29.620Z,10.35
2022-11-05T22:55:31.336Z,9.82
2022-11-05T22:57:33.002Z,9.15
2022-11-05T22:59:34.588Z,10.35
2022-11-05T23:01:36.865Z,9.85
2022-11-05T23:03:39.933Z,11.43
2022-11-05T23:05:41.687Z,8.25
2022-11-05T23:08:01.640Z,7.50
2022-11-05T23:10:22.844Z,9.27
2022-11-05T23:12:28.754Z,8.38
2022-11-05T23:14:30.863Z,8.80
2022-11-05T23:16:51.349Z,10.27
2022-11-05T23:19:11.485Z,9.32
2022-11-05T23:21:31.651Z,9.30
2022-11-05T23:23:51.826Z,7.10
2022-11-05T23:25:59.729Z,7.15
2022-11-05T23:28:06.684Z,7.22
2022-11-05T23:30:11.464Z,6.95
2022-11-05T23:32:25.055Z,6.65
2022-11-05T23:34:26.669Z,7.45
2022-11-05T23:36:46.625Z,7.45
2022-11-05T23:38:48.203Z,8.60
2022-11-05T23:41:08.499Z,13.27
2022-11-05T23:43:29.190Z,10.18
2022-11-05T23:45:50.293Z,9.88
2022-11-05T23:48:10.823Z,9.40
2022-11-05T23:50:12.644Z,7.97
2022-11-05T23:52:14.414Z,8.50
2022-11-05T23:54:16.078Z,8.68
2022-11-05T23:56:17.781Z,10.25
2022-11-05T23:58:19.901Z,8.82
